Main page
Satellite images 15-day forecastsClimateMarine weather Cyclones Lightning AirportsFAQ Newsletter About
Weather : Europe Africa North America South America Asia Australia-Oceania Others
Languages Contact

Belgrade, Serbia

Nikola Tesla

latitude: 44-49N, longitude: 020-17E, elevation: 96 m


METAR: LYBE 241630Z 31006KT 270V350 CAVOK 27/16 Q1010 NOSIG
short-TAF: out of date (18500 hours)
long-TAF: LYBE 241100Z 2412/2512 26008KT 9999 SCT033 TX27/2413Z TN17/2503Z TEMPO 2503/2505 3000 BR

Time: 19:01 (17:01 UTC)

Current weather observation

The report was made 31 minutes ago, at 16:30 UTC  
Wind 06 kt from the Northwest, varying between West and North
Temperature 27°C
Humidity 51%
Pressure 1010 hPa
Visibility 10 km or more
no clouds below 1500 m and no cumulonimbus

Change units

Forecast

The report was made 5 hours and 40 minutes ago, at 11:21 UTC  
Forecast valid from 24 at 12 UTC to 25 at 12 UTC
Wind 08 kt from the West
Visibility 10 km or more
Scattered clouds at a height of 3300 ft
Temporary
from 25 at 03 UTC to 25 at 05 UTC
Visibility 3000 m
mist
The information on this site is subject to a disclaimer
Weather : Europe Africa North America South America Asia Australia-Oceania Others
Satellite images 15-day forecastsClimateMarine weather Cyclones Lightning AirportsFAQ Languages Contact Newsletter About